sensor_id;sensor_type;location;lat;lon;timestamp;P1;durP1;ratioP1;P2;durP2;ratioP2
27746;SDS011;15138;51.012;4.692;2022-10-16T00:01:03;2.80;;;1.73;;
27746;SDS011;15138;51.012;4.692;2022-10-16T00:03:32;4.25;;;1.75;;
27746;SDS011;15138;51.012;4.692;2022-10-16T00:06:00;6.60;;;2.17;;
27746;SDS011;15138;51.012;4.692;2022-10-16T00:08:29;5.15;;;1.90;;
27746;SDS011;15138;51.012;4.692;2022-10-16T00:11:01;4.03;;;2.00;;
27746;SDS011;15138;51.012;4.692;2022-10-16T00:13:30;8.02;;;1.58;;
27746;SDS011;15138;51.012;4.692;2022-10-16T00:15:59;6.38;;;1.75;;
27746;SDS011;15138;51.012;4.692;2022-10-16T00:18:28;5.15;;;2.00;;
27746;SDS011;15138;51.012;4.692;2022-10-16T00:21:01;4.18;;;1.73;;
27746;SDS011;15138;51.012;4.692;2022-10-16T00:23:30;4.15;;;1.50;;
27746;SDS011;15138;51.012;4.692;2022-10-16T00:25:59;6.57;;;1.80;;
27746;SDS011;15138;51.012;4.692;2022-10-16T00:28:27;4.53;;;1.77;;
27746;SDS011;15138;51.012;4.692;2022-10-16T00:30:56;4.03;;;1.60;;
27746;SDS011;15138;51.012;4.692;2022-10-16T00:33:26;2.17;;;1.58;;
27746;SDS011;15138;51.012;4.692;2022-10-16T00:35:54;6.35;;;1.65;;
27746;SDS011;15138;51.012;4.692;2022-10-16T00:38:25;4.45;;;1.35;;
27746;SDS011;15138;51.012;4.692;2022-10-16T00:40:53;4.82;;;1.85;;
27746;SDS011;15138;51.012;4.692;2022-10-16T00:43:35;1.75;;;1.20;;
27746;SDS011;15138;51.012;4.692;2022-10-16T00:46:05;4.45;;;1.45;;
27746;SDS011;15138;51.012;4.692;2022-10-16T00:48:35;5.03;;;1.45;;
27746;SDS011;15138;51.012;4.692;2022-10-16T00:51:03;3.38;;;1.45;;
27746;SDS011;15138;51.012;4.692;2022-10-16T00:53:32;3.17;;;1.10;;
27746;SDS011;15138;51.012;4.692;2022-10-16T00:56:00;2.55;;;1.27;;
27746;SDS011;15138;51.012;4.692;2022-10-16T00:58:29;2.53;;;1.42;;
27746;SDS011;15138;51.012;4.692;2022-10-16T01:00:57;1.92;;;1.23;;
27746;SDS011;15138;51.012;4.692;2022-10-16T01:03:27;3.72;;;1.30;;
27746;SDS011;15138;51.012;4.692;2022-10-16T01:06:02;2.58;;;1.08;;
27746;SDS011;15138;51.012;4.692;2022-10-16T01:08:36;4.32;;;1.00;;
27746;SDS011;15138;51.012;4.692;2022-10-16T01:11:06;1.85;;;1.20;;
27746;SDS011;15138;51.012;4.692;2022-10-16T01:13:40;3.63;;;1.10;;
27746;SDS011;15138;51.012;4.692;2022-10-16T01:16:10;3.90;;;0.98;;
27746;SDS011;15138;51.012;4.692;2022-10-16T01:18:44;3.25;;;1.08;;
27746;SDS011;15138;51.012;4.692;2022-10-16T01:21:15;1.27;;;1.00;;
27746;SDS011;15138;51.012;4.692;2022-10-16T01:23:47;5.00;;;1.13;;
27746;SDS011;15138;51.012;4.692;2022-10-16T01:26:20;3.90;;;0.98;;
27746;SDS011;15138;51.012;4.692;2022-10-16T01:28:55;3.63;;;0.90;;
27746;SDS011;15138;51.012;4.692;2022-10-16T01:31:27;3.95;;;1.15;;
27746;SDS011;15138;51.012;4.692;2022-10-16T01:33:58;6.47;;;1.30;;
27746;SDS011;15138;51.012;4.692;2022-10-16T01:36:29;2.80;;;1.10;;
27746;SDS011;15138;51.012;4.692;2022-10-16T01:39:00;4.63;;;1.05;;
27746;SDS011;15138;51.012;4.692;2022-10-16T01:41:30;3.80;;;0.98;;
27746;SDS011;15138;51.012;4.692;2022-10-16T01:44:01;2.83;;;1.10;;
27746;SDS011;15138;51.012;4.692;2022-10-16T01:46:30;2.72;;;1.00;;
27746;SDS011;15138;51.012;4.692;2022-10-16T01:48:59;2.45;;;1.02;;
27746;SDS011;15138;51.012;4.692;2022-10-16T01:51:28;2.70;;;1.00;;
27746;SDS011;15138;51.012;4.692;2022-10-16T01:53:57;3.35;;;1.20;;
27746;SDS011;15138;51.012;4.692;2022-10-16T01:56:27;5.72;;;1.10;;
27746;SDS011;15138;51.012;4.692;2022-10-16T01:58:57;2.75;;;1.00;;
27746;SDS011;15138;51.012;4.692;2022-10-16T02:01:29;3.67;;;1.00;;
27746;SDS011;15138;51.012;4.692;2022-10-16T02:03:59;4.57;;;1.20;;
27746;SDS011;15138;51.012;4.692;2022-10-16T02:06:29;6.75;;;1.02;;
27746;SDS011;15138;51.012;4.692;2022-10-16T02:08:58;3.25;;;1.00;;
27746;SDS011;15138;51.012;4.692;2022-10-16T02:11:27;3.47;;;1.10;;
27746;SDS011;15138;51.012;4.692;2022-10-16T02:13:55;1.60;;;0.70;;
27746;SDS011;15138;51.012;4.692;2022-10-16T02:16:33;2.42;;;1.00;;
27746;SDS011;15138;51.012;4.692;2022-10-16T02:21:32;3.13;;;1.15;;
27746;SDS011;15138;51.012;4.692;2022-10-16T02:24:02;4.60;;;1.30;;
27746;SDS011;15138;51.012;4.692;2022-10-16T02:26:35;2.22;;;0.90;;
27746;SDS011;15138;51.012;4.692;2022-10-16T02:29:05;4.07;;;0.90;;
27746;SDS011;15138;51.012;4.692;2022-10-16T02:31:37;2.97;;;1.15;;
27746;SDS011;15138;51.012;4.692;2022-10-16T02:34:07;3.28;;;1.10;;
27746;SDS011;15138;51.012;4.692;2022-10-16T02:36:38;5.28;;;1.10;;
27746;SDS011;15138;51.012;4.692;2022-10-16T02:39:07;5.53;;;1.45;;
27746;SDS011;15138;51.012;4.692;2022-10-16T02:41:36;2.55;;;1.30;;
27746;SDS011;15138;51.012;4.692;2022-10-16T02:44:04;3.55;;;1.20;;
27746;SDS011;15138;51.012;4.692;2022-10-16T02:46:32;4.55;;;1.35;;
27746;SDS011;15138;51.012;4.692;2022-10-16T02:49:02;3.72;;;1.25;;
27746;SDS011;15138;51.012;4.692;2022-10-16T02:51:30;5.28;;;1.50;;
27746;SDS011;15138;51.012;4.692;2022-10-16T02:53:59;2.80;;;1.05;;
27746;SDS011;15138;51.012;4.692;2022-10-16T02:56:27;4.85;;;1.35;;
27746;SDS011;15138;51.012;4.692;2022-10-16T02:58:56;3.60;;;1.17;;
27746;SDS011;15138;51.012;4.692;2022-10-16T03:01:24;4.53;;;1.30;;
27746;SDS011;15138;51.012;4.692;2022-10-16T03:03:52;3.15;;;1.20;;
27746;SDS011;15138;51.012;4.692;2022-10-16T03:06:22;2.97;;;1.10;;
27746;SDS011;15138;51.012;4.692;2022-10-16T03:08:50;4.07;;;1.27;;
27746;SDS011;15138;51.012;4.692;2022-10-16T03:11:19;6.35;;;1.98;;
27746;SDS011;15138;51.012;4.692;2022-10-16T03:13:47;5.30;;;1.33;;
27746;SDS011;15138;51.012;4.692;2022-10-16T03:16:15;3.03;;;1.23;;
27746;SDS011;15138;51.012;4.692;2022-10-16T03:18:43;4.28;;;1.35;;
27746;SDS011;15138;51.012;4.692;2022-10-16T03:21:15;2.55;;;1.10;;
27746;SDS011;15138;51.012;4.692;2022-10-16T03:23:45;3.65;;;1.25;;
27746;SDS011;15138;51.012;4.692;2022-10-16T03:26:14;6.05;;;1.40;;
27746;SDS011;15138;51.012;4.692;2022-10-16T03:28:42;5.72;;;1.30;;
27746;SDS011;15138;51.012;4.692;2022-10-16T03:31:10;2.50;;;1.20;;
27746;SDS011;15138;51.012;4.692;2022-10-16T03:33:39;2.40;;;1.17;;
27746;SDS011;15138;51.012;4.692;2022-10-16T03:36:07;3.33;;;1.25;;
27746;SDS011;15138;51.012;4.692;2022-10-16T03:38:35;5.45;;;1.35;;
27746;SDS011;15138;51.012;4.692;2022-10-16T03:41:05;3.65;;;1.10;;
27746;SDS011;15138;51.012;4.692;2022-10-16T03:43:34;3.20;;;1.38;;
27746;SDS011;15138;51.012;4.692;2022-10-16T03:46:02;7.25;;;1.25;;
27746;SDS011;15138;51.012;4.692;2022-10-16T03:48:30;3.03;;;1.40;;
27746;SDS011;15138;51.012;4.692;2022-10-16T03:50:59;3.53;;;1.35;;
27746;SDS011;15138;51.012;4.692;2022-10-16T03:53:27;6.05;;;1.40;;
27746;SDS011;15138;51.012;4.692;2022-10-16T03:55:55;8.43;;;1.50;;
27746;SDS011;15138;51.012;4.692;2022-10-16T03:58:25;2.75;;;1.33;;
27746;SDS011;15138;51.012;4.692;2022-10-16T04:00:54;6.13;;;1.13;;
27746;SDS011;15138;51.012;4.692;2022-10-16T04:03:22;4.00;;;1.52;;
27746;SDS011;15138;51.012;4.692;2022-10-16T04:05:50;3.42;;;1.40;;
27746;SDS011;15138;51.012;4.692;2022-10-16T04:08:19;10.18;;;1.30;;
27746;SDS011;15138;51.012;4.692;2022-10-16T04:10:47;2.22;;;1.10;;
27746;SDS011;15138;51.012;4.692;2022-10-16T04:13:15;2.83;;;1.23;;
27746;SDS011;15138;51.012;4.692;2022-10-16T04:15:46;4.47;;;1.38;;
27746;SDS011;15138;51.012;4.692;2022-10-16T04:18:14;6.20;;;1.30;;
27746;SDS011;15138;51.012;4.692;2022-10-16T04:20:42;2.47;;;1.27;;
27746;SDS011;15138;51.012;4.692;2022-10-16T04:23:11;3.13;;;1.45;;
27746;SDS011;15138;51.012;4.692;2022-10-16T04:25:39;5.20;;;1.48;;
27746;SDS011;15138;51.012;4.692;2022-10-16T04:28:07;2.60;;;1.20;;
27746;SDS011;15138;51.012;4.692;2022-10-16T04:30:37;2.17;;;1.15;;
27746;SDS011;15138;51.012;4.692;2022-10-16T04:33:07;4.07;;;1.30;;
27746;SDS011;15138;51.012;4.692;2022-10-16T04:35:36;6.63;;;1.20;;
27746;SDS011;15138;51.012;4.692;2022-10-16T04:38:04;4.28;;;1.38;;
27746;SDS011;15138;51.012;4.692;2022-10-16T04:40:33;1.80;;;0.82;;
27746;SDS011;15138;51.012;4.692;2022-10-16T04:43:02;2.20;;;1.10;;
27746;SDS011;15138;51.012;4.692;2022-10-16T04:45:31;3.60;;;1.50;;
27746;SDS011;15138;51.012;4.692;2022-10-16T04:47:59;3.33;;;1.38;;
27746;SDS011;15138;51.012;4.692;2022-10-16T04:50:29;1.48;;;0.90;;
27746;SDS011;15138;51.012;4.692;2022-10-16T04:52:57;5.18;;;1.38;;
27746;SDS011;15138;51.012;4.692;2022-10-16T04:55:25;4.70;;;1.27;;
27746;SDS011;15138;51.012;4.692;2022-10-16T04:57:54;7.05;;;1.58;;
27746;SDS011;15138;51.012;4.692;2022-10-16T05:00:22;3.65;;;1.50;;
27746;SDS011;15138;51.012;4.692;2022-10-16T05:02:50;5.68;;;1.58;;
27746;SDS011;15138;51.012;4.692;2022-10-16T05:05:19;5.18;;;1.45;;
27746;SDS011;15138;51.012;4.692;2022-10-16T05:07:48;6.38;;;1.40;;
27746;SDS011;15138;51.012;4.692;2022-10-16T05:10:17;6.82;;;1.67;;
27746;SDS011;15138;51.012;4.692;2022-10-16T05:12:45;3.08;;;1.23;;
27746;SDS011;15138;51.012;4.692;2022-10-16T05:15:13;5.18;;;1.52;;
27746;SDS011;15138;51.012;4.692;2022-10-16T05:17:42;6.00;;;1.38;;
27746;SDS011;15138;51.012;4.692;2022-10-16T05:20:10;4.28;;;1.30;;
27746;SDS011;15138;51.012;4.692;2022-10-16T05:22:38;3.70;;;1.52;;
27746;SDS011;15138;51.012;4.692;2022-10-16T05:25:08;2.67;;;1.42;;
27746;SDS011;15138;51.012;4.692;2022-10-16T05:27:36;3.30;;;1.52;;
27746;SDS011;15138;51.012;4.692;2022-10-16T05:30:05;5.38;;;1.50;;
27746;SDS011;15138;51.012;4.692;2022-10-16T05:32:37;2.90;;;1.38;;
27746;SDS011;15138;51.012;4.692;2022-10-16T05:35:06;6.40;;;1.65;;
27746;SDS011;15138;51.012;4.692;2022-10-16T05:37:38;4.40;;;1.38;;
27746;SDS011;15138;51.012;4.692;2022-10-16T05:40:06;3.25;;;1.40;;
27746;SDS011;15138;51.012;4.692;2022-10-16T05:42:36;3.65;;;1.35;;
27746;SDS011;15138;51.012;4.692;2022-10-16T05:45:05;8.48;;;1.88;;
27746;SDS011;15138;51.012;4.692;2022-10-16T05:47:34;6.00;;;1.40;;
27746;SDS011;15138;51.012;4.692;2022-10-16T05:50:03;7.25;;;1.85;;
27746;SDS011;15138;51.012;4.692;2022-10-16T05:52:31;7.00;;;1.48;;
27746;SDS011;15138;51.012;4.692;2022-10-16T05:54:59;6.28;;;2.00;;
27746;SDS011;15138;51.012;4.692;2022-10-16T05:57:28;4.88;;;1.52;;
27746;SDS011;15138;51.012;4.692;2022-10-16T05:59:57;6.43;;;1.80;;
27746;SDS011;15138;51.012;4.692;2022-10-16T06:02:26;3.92;;;1.55;;
27746;SDS011;15138;51.012;4.692;2022-10-16T06:04:54;4.05;;;1.58;;
27746;SDS011;15138;51.012;4.692;2022-10-16T06:07:22;5.00;;;1.55;;
27746;SDS011;15138;51.012;4.692;2022-10-16T06:09:51;5.30;;;1.98;;
27746;SDS011;15138;51.012;4.692;2022-10-16T06:12:20;4.72;;;1.30;;
27746;SDS011;15138;51.012;4.692;2022-10-16T06:14:48;3.15;;;1.38;;
27746;SDS011;15138;51.012;4.692;2022-10-16T06:17:18;4.68;;;1.58;;
27746;SDS011;15138;51.012;4.692;2022-10-16T06:19:46;9.93;;;1.88;;
27746;SDS011;15138;51.012;4.692;2022-10-16T06:22:14;3.60;;;1.80;;
27746;SDS011;15138;51.012;4.692;2022-10-16T06:24:43;4.55;;;1.70;;
27746;SDS011;15138;51.012;4.692;2022-10-16T06:27:12;6.97;;;1.80;;
27746;SDS011;15138;51.012;4.692;2022-10-16T06:29:40;3.50;;;1.67;;
27746;SDS011;15138;51.012;4.692;2022-10-16T06:32:11;5.13;;;1.55;;
27746;SDS011;15138;51.012;4.692;2022-10-16T06:34:40;5.68;;;1.83;;
27746;SDS011;15138;51.012;4.692;2022-10-16T06:37:09;5.68;;;2.03;;
27746;SDS011;15138;51.012;4.692;2022-10-16T06:39:37;8.38;;;2.20;;
27746;SDS011;15138;51.012;4.692;2022-10-16T06:42:06;5.80;;;2.00;;
27746;SDS011;15138;51.012;4.692;2022-10-16T06:44:34;5.93;;;1.67;;
27746;SDS011;15138;51.012;4.692;2022-10-16T06:47:02;6.40;;;1.58;;
27746;SDS011;15138;51.012;4.692;2022-10-16T06:49:31;6.30;;;1.77;;
27746;SDS011;15138;51.012;4.692;2022-10-16T06:52:00;7.88;;;1.90;;
27746;SDS011;15138;51.012;4.692;2022-10-16T06:54:28;6.32;;;1.70;;
27746;SDS011;15138;51.012;4.692;2022-10-16T06:57:07;3.40;;;1.60;;
27746;SDS011;15138;51.012;4.692;2022-10-16T06:59:35;9.95;;;2.20;;
27746;SDS011;15138;51.012;4.692;2022-10-16T07:02:03;3.85;;;2.20;;
27746;SDS011;15138;51.012;4.692;2022-10-16T07:04:33;4.53;;;1.80;;
27746;SDS011;15138;51.012;4.692;2022-10-16T07:07:02;4.15;;;1.70;;
27746;SDS011;15138;51.012;4.692;2022-10-16T07:09:34;2.58;;;1.65;;
27746;SDS011;15138;51.012;4.692;2022-10-16T07:12:03;3.95;;;1.90;;
27746;SDS011;15138;51.012;4.692;2022-10-16T07:14:31;7.72;;;1.90;;
27746;SDS011;15138;51.012;4.692;2022-10-16T07:17:00;5.25;;;1.67;;
27746;SDS011;15138;51.012;4.692;2022-10-16T07:19:28;7.30;;;2.03;;
27746;SDS011;15138;51.012;4.692;2022-10-16T07:21:59;7.50;;;1.77;;
27746;SDS011;15138;51.012;4.692;2022-10-16T07:24:30;8.68;;;1.67;;
27746;SDS011;15138;51.012;4.692;2022-10-16T07:26:58;5.80;;;1.60;;
27746;SDS011;15138;51.012;4.692;2022-10-16T07:29:27;5.10;;;1.42;;
27746;SDS011;15138;51.012;4.692;2022-10-16T07:31:55;5.03;;;1.45;;
27746;SDS011;15138;51.012;4.692;2022-10-16T07:34:23;7.60;;;1.77;;
27746;SDS011;15138;51.012;4.692;2022-10-16T07:36:52;5.97;;;1.98;;
27746;SDS011;15138;51.012;4.692;2022-10-16T07:39:21;5.07;;;1.85;;
27746;SDS011;15138;51.012;4.692;2022-10-16T07:41:50;4.68;;;2.03;;
27746;SDS011;15138;51.012;4.692;2022-10-16T07:44:18;2.38;;;1.60;;
27746;SDS011;15138;51.012;4.692;2022-10-16T07:46:47;5.50;;;1.70;;
27746;SDS011;15138;51.012;4.692;2022-10-16T07:49:15;7.03;;;1.75;;
27746;SDS011;15138;51.012;4.692;2022-10-16T07:51:43;4.20;;;1.42;;
27746;SDS011;15138;51.012;4.692;2022-10-16T07:54:12;9.10;;;2.17;;
27746;SDS011;15138;51.012;4.692;2022-10-16T07:56:40;7.80;;;1.88;;
27746;SDS011;15138;51.012;4.692;2022-10-16T07:59:10;3.75;;;1.65;;
27746;SDS011;15138;51.012;4.692;2022-10-16T08:01:39;6.72;;;1.55;;
27746;SDS011;15138;51.012;4.692;2022-10-16T08:04:08;5.15;;;1.50;;
27746;SDS011;15138;51.012;4.692;2022-10-16T08:06:37;8.45;;;1.70;;
27746;SDS011;15138;51.012;4.692;2022-10-16T08:09:06;4.65;;;1.48;;
27746;SDS011;15138;51.012;4.692;2022-10-16T08:11:35;7.20;;;1.52;;
27746;SDS011;15138;51.012;4.692;2022-10-16T08:14:03;7.88;;;2.08;;
27746;SDS011;15138;51.012;4.692;2022-10-16T08:16:33;5.88;;;1.67;;
27746;SDS011;15138;51.012;4.692;2022-10-16T08:19:01;4.35;;;1.58;;
27746;SDS011;15138;51.012;4.692;2022-10-16T08:21:29;7.45;;;1.85;;
27746;SDS011;15138;51.012;4.692;2022-10-16T08:23:57;7.70;;;1.52;;
27746;SDS011;15138;51.012;4.692;2022-10-16T08:26:26;5.20;;;1.40;;
27746;SDS011;15138;51.012;4.692;2022-10-16T08:28:55;3.65;;;1.30;;
27746;SDS011;15138;51.012;4.692;2022-10-16T08:31:24;5.75;;;1.55;;
27746;SDS011;15138;51.012;4.692;2022-10-16T08:33:55;4.22;;;1.40;;
27746;SDS011;15138;51.012;4.692;2022-10-16T08:36:23;4.45;;;1.45;;
27746;SDS011;15138;51.012;4.692;2022-10-16T08:38:51;4.65;;;1.40;;
27746;SDS011;15138;51.012;4.692;2022-10-16T08:41:22;9.55;;;1.65;;
27746;SDS011;15138;51.012;4.692;2022-10-16T08:44:04;6.32;;;1.50;;
27746;SDS011;15138;51.012;4.692;2022-10-16T08:46:38;9.25;;;1.63;;
27746;SDS011;15138;51.012;4.692;2022-10-16T08:49:17;6.38;;;1.35;;
27746;SDS011;15138;51.012;4.692;2022-10-16T08:51:45;4.57;;;1.48;;
27746;SDS011;15138;51.012;4.692;2022-10-16T08:54:22;7.18;;;1.50;;
27746;SDS011;15138;51.012;4.692;2022-10-16T08:56:54;6.72;;;1.40;;
27746;SDS011;15138;51.012;4.692;2022-10-16T08:59:23;8.73;;;1.70;;
27746;SDS011;15138;51.012;4.692;2022-10-16T09:01:51;5.20;;;1.63;;
27746;SDS011;15138;51.012;4.692;2022-10-16T09:04:26;8.45;;;1.50;;
27746;SDS011;15138;51.012;4.692;2022-10-16T09:06:57;7.07;;;1.70;;
27746;SDS011;15138;51.012;4.692;2022-10-16T09:09:35;6.57;;;1.70;;
27746;SDS011;15138;51.012;4.692;2022-10-16T09:12:08;5.05;;;1.30;;
27746;SDS011;15138;51.012;4.692;2022-10-16T09:14:52;4.80;;;1.58;;
27746;SDS011;15138;51.012;4.692;2022-10-16T09:17:25;5.40;;;1.63;;
27746;SDS011;15138;51.012;4.692;2022-10-16T09:20:12;5.63;;;1.55;;
27746;SDS011;15138;51.012;4.692;2022-10-16T09:22:41;9.30;;;1.95;;
27746;SDS011;15138;51.012;4.692;2022-10-16T09:25:11;4.55;;;1.17;;
27746;SDS011;15138;51.012;4.692;2022-10-16T09:27:40;4.78;;;1.20;;
27746;SDS011;15138;51.012;4.692;2022-10-16T09:30:12;3.25;;;0.98;;
27746;SDS011;15138;51.012;4.692;2022-10-16T09:32:40;5.90;;;1.35;;
27746;SDS011;15138;51.012;4.692;2022-10-16T09:35:13;7.57;;;1.27;;
27746;SDS011;15138;51.012;4.692;2022-10-16T09:37:42;8.20;;;1.65;;
27746;SDS011;15138;51.012;4.692;2022-10-16T09:40:12;5.68;;;1.48;;
27746;SDS011;15138;51.012;4.692;2022-10-16T09:42:40;6.68;;;1.40;;
27746;SDS011;15138;51.012;4.692;2022-10-16T09:45:19;6.30;;;1.25;;
27746;SDS011;15138;51.012;4.692;2022-10-16T09:47:50;6.47;;;1.50;;
27746;SDS011;15138;51.012;4.692;2022-10-16T09:53:04;3.92;;;1.20;;
27746;SDS011;15138;51.012;4.692;2022-10-16T09:55:33;8.00;;;1.52;;
27746;SDS011;15138;51.012;4.692;2022-10-16T09:58:01;8.23;;;1.27;;
27746;SDS011;15138;51.012;4.692;2022-10-16T10:00:29;6.63;;;1.50;;
27746;SDS011;15138;51.012;4.692;2022-10-16T10:02:58;4.65;;;1.00;;
27746;SDS011;15138;51.012;4.692;2022-10-16T10:05:27;3.85;;;1.48;;
27746;SDS011;15138;51.012;4.692;2022-10-16T10:07:57;7.75;;;1.70;;
27746;SDS011;15138;51.012;4.692;2022-10-16T10:10:27;4.60;;;1.60;;
27746;SDS011;15138;51.012;4.692;2022-10-16T10:12:57;7.72;;;1.58;;
27746;SDS011;15138;51.012;4.692;2022-10-16T10:15:25;8.80;;;1.77;;
27746;SDS011;15138;51.012;4.692;2022-10-16T10:17:57;4.72;;;1.65;;
27746;SDS011;15138;51.012;4.692;2022-10-16T10:20:26;8.13;;;1.67;;
27746;SDS011;15138;51.012;4.692;2022-10-16T10:22:58;7.60;;;1.67;;
27746;SDS011;15138;51.012;4.692;2022-10-16T10:25:32;5.88;;;1.08;;
27746;SDS011;15138;51.012;4.692;2022-10-16T10:28:20;6.15;;;1.55;;
27746;SDS011;15138;51.012;4.692;2022-10-16T10:30:59;11.15;;;1.27;;
27746;SDS011;15138;51.012;4.692;2022-10-16T10:33:34;6.65;;;1.42;;
27746;SDS011;15138;51.012;4.692;2022-10-16T10:36:12;9.30;;;1.35;;
27746;SDS011;15138;51.012;4.692;2022-10-16T10:38:51;5.68;;;1.60;;
27746;SDS011;15138;51.012;4.692;2022-10-16T10:41:34;8.10;;;1.65;;
27746;SDS011;15138;51.012;4.692;2022-10-16T10:44:32;8.30;;;1.38;;
27746;SDS011;15138;51.012;4.692;2022-10-16T10:47:20;5.38;;;1.30;;
27746;SDS011;15138;51.012;4.692;2022-10-16T10:49:59;6.13;;;1.27;;
27746;SDS011;15138;51.012;4.692;2022-10-16T10:55:29;6.47;;;1.45;;
27746;SDS011;15138;51.012;4.692;2022-10-16T10:58:08;8.50;;;1.67;;
27746;SDS011;15138;51.012;4.692;2022-10-16T11:00:53;5.90;;;1.17;;
27746;SDS011;15138;51.012;4.692;2022-10-16T11:03:32;16.77;;;1.73;;
27746;SDS011;15138;51.012;4.692;2022-10-16T11:06:24;6.20;;;1.73;;
27746;SDS011;15138;51.012;4.692;2022-10-16T11:08:57;8.82;;;1.40;;
27746;SDS011;15138;51.012;4.692;2022-10-16T11:11:32;6.32;;;1.40;;
27746;SDS011;15138;51.012;4.692;2022-10-16T11:14:06;5.55;;;1.40;;
27746;SDS011;15138;51.012;4.692;2022-10-16T11:16:42;13.02;;;1.40;;
27746;SDS011;15138;51.012;4.692;2022-10-16T11:19:22;5.75;;;1.40;;
27746;SDS011;15138;51.012;4.692;2022-10-16T11:22:01;6.80;;;1.30;;
27746;SDS011;15138;51.012;4.692;2022-10-16T11:24:35;9.57;;;1.48;;
27746;SDS011;15138;51.012;4.692;2022-10-16T11:27:12;7.13;;;1.65;;
27746;SDS011;15138;51.012;4.692;2022-10-16T11:32:17;12.68;;;1.80;;
27746;SDS011;15138;51.012;4.692;2022-10-16T11:34:50;5.07;;;1.27;;
27746;SDS011;15138;51.012;4.692;2022-10-16T11:37:21;5.78;;;1.48;;
27746;SDS011;15138;51.012;4.692;2022-10-16T11:39:56;6.57;;;1.63;;
27746;SDS011;15138;51.012;4.692;2022-10-16T11:42:33;5.30;;;1.02;;
27746;SDS011;15138;51.012;4.692;2022-10-16T11:45:08;8.52;;;1.60;;
27746;SDS011;15138;51.012;4.692;2022-10-16T11:47:48;4.85;;;1.38;;
27746;SDS011;15138;51.012;4.692;2022-10-16T11:50:27;7.97;;;1.48;;
27746;SDS011;15138;51.012;4.692;2022-10-16T11:53:00;4.07;;;1.08;;
27746;SDS011;15138;51.012;4.692;2022-10-16T11:55:32;6.22;;;1.17;;
27746;SDS011;15138;51.012;4.692;2022-10-16T11:58:13;7.75;;;1.20;;
27746;SDS011;15138;51.012;4.692;2022-10-16T12:00:51;4.47;;;1.25;;
27746;SDS011;15138;51.012;4.692;2022-10-16T12:03:25;7.28;;;1.30;;
27746;SDS011;15138;51.012;4.692;2022-10-16T12:06:04;4.32;;;1.48;;
27746;SDS011;15138;51.012;4.692;2022-10-16T12:08:40;6.93;;;1.20;;
27746;SDS011;15138;51.012;4.692;2022-10-16T12:11:20;8.30;;;1.35;;
27746;SDS011;15138;51.012;4.692;2022-10-16T12:14:03;4.22;;;1.10;;
27746;SDS011;15138;51.012;4.692;2022-10-16T12:16:33;6.78;;;1.30;;
27746;SDS011;15138;51.012;4.692;2022-10-16T12:19:12;5.57;;;1.30;;
27746;SDS011;15138;51.012;4.692;2022-10-16T12:21:41;5.55;;;1.10;;
27746;SDS011;15138;51.012;4.692;2022-10-16T12:24:21;4.28;;;1.10;;
27746;SDS011;15138;51.012;4.692;2022-10-16T12:26:55;5.45;;;1.10;;
27746;SDS011;15138;51.012;4.692;2022-10-16T12:29:28;2.70;;;0.90;;
27746;SDS011;15138;51.012;4.692;2022-10-16T12:32:02;4.88;;;1.05;;
27746;SDS011;15138;51.012;4.692;2022-10-16T12:34:37;7.30;;;1.02;;
27746;SDS011;15138;51.012;4.692;2022-10-16T12:37:08;3.55;;;1.10;;
27746;SDS011;15138;51.012;4.692;2022-10-16T12:39:39;6.30;;;1.30;;
27746;SDS011;15138;51.012;4.692;2022-10-16T12:42:19;5.22;;;1.02;;
27746;SDS011;15138;51.012;4.692;2022-10-16T12:44:51;4.35;;;0.95;;
27746;SDS011;15138;51.012;4.692;2022-10-16T12:47:20;4.25;;;1.30;;
27746;SDS011;15138;51.012;4.692;2022-10-16T12:49:51;4.25;;;0.90;;
27746;SDS011;15138;51.012;4.692;2022-10-16T12:52:25;3.33;;;0.90;;
27746;SDS011;15138;51.012;4.692;2022-10-16T12:54:56;4.53;;;0.90;;
27746;SDS011;15138;51.012;4.692;2022-10-16T12:57:39;4.75;;;1.33;;
27746;SDS011;15138;51.012;4.692;2022-10-16T13:00:21;6.05;;;1.15;;
27746;SDS011;15138;51.012;4.692;2022-10-16T13:02:59;5.28;;;1.00;;
27746;SDS011;15138;51.012;4.692;2022-10-16T13:05:51;5.00;;;1.10;;
27746;SDS011;15138;51.012;4.692;2022-10-16T13:08:35;7.18;;;1.10;;
27746;SDS011;15138;51.012;4.692;2022-10-16T13:11:19;9.15;;;1.35;;
27746;SDS011;15138;51.012;4.692;2022-10-16T13:13:59;3.70;;;0.98;;
27746;SDS011;15138;51.012;4.692;2022-10-16T13:16:41;5.70;;;1.20;;
27746;SDS011;15138;51.012;4.692;2022-10-16T13:19:22;5.97;;;1.52;;
27746;SDS011;15138;51.012;4.692;2022-10-16T13:21:58;9.63;;;1.38;;
27746;SDS011;15138;51.012;4.692;2022-10-16T13:24:38;5.35;;;1.08;;
27746;SDS011;15138;51.012;4.692;2022-10-16T13:27:18;7.28;;;1.67;;
27746;SDS011;15138;51.012;4.692;2022-10-16T13:30:00;3.75;;;0.82;;
27746;SDS011;15138;51.012;4.692;2022-10-16T13:32:37;3.35;;;1.00;;
27746;SDS011;15138;51.012;4.692;2022-10-16T13:35:18;8.25;;;1.00;;
27746;SDS011;15138;51.012;4.692;2022-10-16T13:37:47;4.15;;;1.13;;
27746;SDS011;15138;51.012;4.692;2022-10-16T13:40:19;8.35;;;1.13;;
27746;SDS011;15138;51.012;4.692;2022-10-16T13:42:49;4.88;;;0.80;;
27746;SDS011;15138;51.012;4.692;2022-10-16T13:45:18;2.67;;;1.00;;
27746;SDS011;15138;51.012;4.692;2022-10-16T13:47:48;3.67;;;0.90;;
27746;SDS011;15138;51.012;4.692;2022-10-16T13:50:17;4.38;;;0.90;;
27746;SDS011;15138;51.012;4.692;2022-10-16T13:52:45;5.30;;;1.40;;
27746;SDS011;15138;51.012;4.692;2022-10-16T13:55:16;4.38;;;1.00;;
27746;SDS011;15138;51.012;4.692;2022-10-16T13:57:45;2.70;;;1.00;;
27746;SDS011;15138;51.012;4.692;2022-10-16T14:00:20;8.43;;;1.20;;
27746;SDS011;15138;51.012;4.692;2022-10-16T14:02:53;7.82;;;1.30;;
27746;SDS011;15138;51.012;4.692;2022-10-16T14:05:26;4.60;;;1.20;;
27746;SDS011;15138;51.012;4.692;2022-10-16T14:07:54;4.95;;;1.00;;
27746;SDS011;15138;51.012;4.692;2022-10-16T14:10:24;6.35;;;1.00;;
27746;SDS011;15138;51.012;4.692;2022-10-16T14:12:56;4.68;;;0.88;;
27746;SDS011;15138;51.012;4.692;2022-10-16T14:15:26;5.57;;;1.42;;
27746;SDS011;15138;51.012;4.692;2022-10-16T14:17:57;3.88;;;1.10;;
27746;SDS011;15138;51.012;4.692;2022-10-16T14:20:26;4.85;;;1.13;;
27746;SDS011;15138;51.012;4.692;2022-10-16T14:23:00;2.60;;;1.10;;
27746;SDS011;15138;51.012;4.692;2022-10-16T14:25:30;4.47;;;1.30;;
27746;SDS011;15138;51.012;4.692;2022-10-16T14:28:00;4.45;;;1.20;;
27746;SDS011;15138;51.012;4.692;2022-10-16T14:30:30;5.63;;;1.30;;
27746;SDS011;15138;51.012;4.692;2022-10-16T14:33:02;4.68;;;1.02;;
27746;SDS011;15138;51.012;4.692;2022-10-16T14:35:31;6.88;;;1.38;;
27746;SDS011;15138;51.012;4.692;2022-10-16T14:38:01;4.57;;;0.98;;
27746;SDS011;15138;51.012;4.692;2022-10-16T14:40:33;3.20;;;1.10;;
27746;SDS011;15138;51.012;4.692;2022-10-16T14:43:02;6.38;;;1.60;;
27746;SDS011;15138;51.012;4.692;2022-10-16T14:45:31;7.60;;;1.10;;
27746;SDS011;15138;51.012;4.692;2022-10-16T14:48:04;8.10;;;1.42;;
27746;SDS011;15138;51.012;4.692;2022-10-16T14:50:45;5.00;;;1.55;;
27746;SDS011;15138;51.012;4.692;2022-10-16T14:53:13;3.30;;;1.17;;
27746;SDS011;15138;51.012;4.692;2022-10-16T14:55:42;5.25;;;1.60;;
27746;SDS011;15138;51.012;4.692;2022-10-16T14:58:11;7.90;;;1.95;;
27746;SDS011;15138;51.012;4.692;2022-10-16T15:00:42;5.45;;;1.70;;
27746;SDS011;15138;51.012;4.692;2022-10-16T15:03:11;5.78;;;1.80;;
27746;SDS011;15138;51.012;4.692;2022-10-16T15:05:39;4.90;;;1.50;;
27746;SDS011;15138;51.012;4.692;2022-10-16T15:08:07;8.00;;;1.80;;
27746;SDS011;15138;51.012;4.692;2022-10-16T15:10:38;4.43;;;1.65;;
27746;SDS011;15138;51.012;4.692;2022-10-16T15:13:09;5.53;;;1.52;;
27746;SDS011;15138;51.012;4.692;2022-10-16T15:15:40;6.10;;;1.70;;
27746;SDS011;15138;51.012;4.692;2022-10-16T15:18:12;8.48;;;1.70;;
27746;SDS011;15138;51.012;4.692;2022-10-16T15:20:47;4.43;;;1.30;;
27746;SDS011;15138;51.012;4.692;2022-10-16T15:23:17;6.60;;;1.77;;